Time;durP1;ratioP1;P1;durP2;ratioP2;P2;SDS_P1;SDS_P2;PMS_P1;PMS_P2;Temp;Humidity;BMP_temperature;BMP_pressure;BME280_temperature;BME280_humidity;BME280_pressure;Samples;Min_cycle;Max_cycle;Signal;HPM_P1;HPM_P2
2024/02/18 00:01:17;;;;;;;30.90;15.15;;;;;;;0.99;75.46;100573.59;4930522;28;20137;-96
2024/02/18 00:03:45;;;;;;;30.35;14.52;;;;;;;0.99;75.53;100575.41;4930998;28;20030;-96
2024/02/18 00:06:11;;;;;;;31.92;15.65;;;;;;;0.99;75.84;100573.59;4930387;28;20035;-96
2024/02/18 00:08:36;;;;;;;28.00;13.55;;;;;;;1.12;76.32;100594.25;4947312;28;20038;-96
2024/02/18 00:11:02;;;;;;;25.77;14.43;;;;;;;1.09;75.35;100575.19;4930754;28;20502;-95
2024/02/18 00:13:27;;;;;;;30.33;16.05;;;;;;;1.04;76.30;100581.03;4945412;28;20472;-94
2024/02/18 00:15:53;;;;;;;31.65;16.15;;;;;;;1.20;75.51;100583.56;4929230;28;20026;-94
2024/02/18 00:18:18;;;;;;;30.73;14.65;;;;;;;1.09;75.12;100575.19;4928747;28;20027;-94
2024/02/18 00:20:44;;;;;;;34.53;14.90;;;;;;;1.17;75.43;100593.72;4929336;28;20039;-95
2024/02/18 00:23:09;;;;;;;35.25;17.13;;;;;;;1.01;75.28;100573.41;4929402;28;20026;-94
2024/02/18 00:25:54;;;;;;;30.63;15.18;;;;;;;0.99;76.02;100575.41;4929272;28;20038;-96
2024/02/18 00:28:20;;;;;;;29.77;15.18;;;;;;;0.88;76.00;100573.19;4947493;28;20027;-95
2024/02/18 00:30:49;;;;;;;30.40;15.15;;;;;;;0.91;75.25;100565.69;4928712;28;20062;-94
2024/02/18 00:33:20;;;;;;;29.38;15.25;;;;;;;0.94;75.59;100564.53;4930737;28;20031;-95
2024/02/18 00:35:46;;;;;;;30.67;15.68;;;;;;;0.90;75.02;100560.56;4945870;28;20039;-94
2024/02/18 00:38:11;;;;;;;30.05;15.40;;;;;;;0.99;75.38;100570.94;4929275;28;20101;-95
2024/02/18 00:40:37;;;;;;;29.15;15.15;;;;;;;0.95;75.84;100563.50;4929321;28;20027;-94
2024/02/18 00:43:03;;;;;;;28.20;14.38;;;;;;;0.99;75.54;100549.72;4929793;28;20031;-94
2024/02/18 00:45:28;;;;;;;29.73;15.07;;;;;;;1.16;75.45;100568.16;4930199;28;20481;-95
2024/02/18 00:47:54;;;;;;;28.67;14.98;;;;;;;1.00;75.00;100546.09;4929490;28;20027;-94
2024/02/18 00:50:19;;;;;;;35.85;16.48;;;;;;;0.90;75.81;100531.41;4930134;28;20034;-94
2024/02/18 00:52:45;;;;;;;31.98;15.63;;;;;;;1.14;74.62;100549.81;4930033;28;20034;-96
2024/02/18 00:55:10;;;;;;;29.88;14.65;;;;;;;0.95;75.01;100543.13;4946381;28;20035;-95
2024/02/18 00:57:36;;;;;;;27.27;15.20;;;;;;;0.99;75.22;100559.50;4944989;28;20030;-96
2024/02/18 01:00:02;;;;;;;31.08;14.43;;;;;;;1.01;74.86;100546.91;4929296;28;20117;-94
2024/02/18 01:02:29;;;;;;;28.98;15.85;;;;;;;0.94;74.95;100543.31;4931167;28;20062;-96
2024/02/18 01:04:56;;;;;;;29.45;14.73;;;;;;;0.92;75.18;100535.53;4929549;28;20034;-96
2024/02/18 01:07:21;;;;;;;33.83;14.00;;;;;;;0.88;74.91;100544.03;4944981;28;20027;-96
2024/02/18 01:09:49;;;;;;;30.42;14.98;;;;;;;1.08;74.39;100554.97;4929037;28;20026;-96
2024/02/18 01:12:15;;;;;;;30.40;14.63;;;;;;;1.01;74.53;100553.03;4948232;28;20078;-96
2024/02/18 01:14:42;;;;;;;25.88;13.93;;;;;;;0.97;74.07;100545.59;4935024;28;20037;-96
2024/02/18 01:17:08;;;;;;;28.98;14.05;;;;;;;1.06;74.01;100551.66;4930502;28;20062;-96
2024/02/18 01:19:34;;;;;;;29.45;15.18;;;;;;;0.97;73.70;100525.19;4945200;28;20130;-95
2024/02/18 01:21:59;;;;;;;32.35;14.70;;;;;;;0.92;73.86;100527.56;4943844;29;20035;-96
2024/02/18 01:24:25;;;;;;;24.08;13.57;;;;;;;0.81;74.26;100541.25;4926270;29;20051;-96
2024/02/18 01:26:50;;;;;;;29.58;15.02;;;;;;;0.85;74.06;100539.91;4910635;29;20482;-96
2024/02/18 01:29:16;;;;;;;35.38;16.67;;;;;;;0.65;74.55;100514.84;4909299;29;20386;-96
2024/02/18 01:31:42;;;;;;;37.15;16.67;;;;;;;0.71;74.34;100530.88;4909014;29;20023;-96
2024/02/18 01:34:09;;;;;;;29.48;15.98;;;;;;;0.77;75.12;100532.00;4909786;29;20429;-96
2024/02/18 01:36:35;;;;;;;33.47;16.63;;;;;;;0.57;75.43;100519.19;4910126;29;20095;-95
2024/02/18 01:39:00;;;;;;;38.17;17.30;;;;;;;0.72;75.16;100539.63;4909428;29;20066;-96
2024/02/18 01:41:26;;;;;;;29.65;16.25;;;;;;;0.76;74.80;100546.25;4910358;29;20027;-96
2024/02/18 01:43:52;;;;;;;39.45;16.48;;;;;;;0.62;75.62;100537.19;4909729;29;20446;-96
2024/02/18 01:46:17;;;;;;;39.38;16.63;;;;;;;0.58;75.03;100525.28;4909951;29;20055;-96
2024/02/18 01:48:43;;;;;;;36.35;16.42;;;;;;;0.73;74.73;100550.06;4910131;29;20027;-95
2024/02/18 01:51:08;;;;;;;33.40;15.85;;;;;;;0.63;74.90;100538.06;4926168;29;20026;-96
2024/02/18 01:53:34;;;;;;;28.77;15.65;;;;;;;0.50;74.91;100512.94;4909894;29;20105;-96
2024/02/18 01:56:00;;;;;;;27.48;14.93;;;;;;;0.59;74.75;100542.88;4926115;29;20027;-96
2024/02/18 01:58:26;;;;;;;32.00;16.33;;;;;;;0.40;75.16;100529.03;4910296;29;20413;-96
2024/02/18 02:00:51;;;;;;;41.25;23.90;;;;;;;0.22;75.73;100520.53;4907636;29;20067;-96
2024/02/18 02:03:17;;;;;;;33.38;16.38;;;;;;;0.32;75.53;100515.03;4907936;29;20028;-96
2024/02/18 02:05:42;;;;;;;35.60;16.70;;;;;;;0.34;74.98;100526.28;4909961;29;20023;-96
2024/02/18 02:08:10;;;;;;;34.72;16.10;;;;;;;0.15;76.36;100535.47;4910209;29;20101;-96
2024/02/18 02:10:36;;;;;;;32.90;16.60;;;;;;;0.20;76.06;100543.72;4909385;29;20031;-96
2024/02/18 02:13:02;;;;;;;31.02;15.32;;;;;;;0.08;76.09;100531.84;4909009;29;20035;-96
2024/02/18 02:15:27;;;;;;;28.30;16.25;;;;;;;0.08;75.81;100511.47;4909137;29;20031;-95
2024/02/18 02:17:53;;;;;;;35.63;16.50;;;;;;;0.11;75.67;100515.63;4907460;29;20489;-96
2024/02/18 02:20:18;;;;;;;31.55;15.63;;;;;;;0.22;76.29;100536.41;4908506;29;20114;-96
2024/02/18 02:22:44;;;;;;;31.10;17.02;;;;;;;0.22;75.76;100515.22;4909116;29;20027;-96
2024/02/18 02:25:10;;;;;;;36.58;17.13;;;;;;;0.22;75.94;100525.81;4909634;29;20034;-95
2024/02/18 02:27:41;;;;;;;36.35;16.50;;;;;;;0.27;75.90;100535.88;4908180;29;20038;-96
2024/02/18 02:30:07;;;;;;;34.00;16.83;;;;;;;0.05;76.02;100535.66;4908679;29;20027;-96
2024/02/18 02:32:34;;;;;;;35.45;16.48;;;;;;;-0.01;75.92;100531.03;4908418;29;20481;-96
2024/02/18 02:35:00;;;;;;;28.25;16.65;;;;;;;-0.02;76.67;100545.28;4909383;29;20090;-95
2024/02/18 02:37:25;;;;;;;34.05;16.35;;;;;;;0.08;76.52;100537.94;4908494;29;20062;-96
2024/02/18 02:39:51;;;;;;;34.75;15.93;;;;;;;0.02;76.02;100524.56;4909749;29;20023;-96
2024/02/18 02:42:17;;;;;;;32.20;15.63;;;;;;;-0.05;75.99;100524.44;4908740;29;20038;-96
2024/02/18 02:44:43;;;;;;;35.75;16.73;;;;;;;0.03;76.49;100548.25;4908427;29;20031;-96
2024/02/18 02:47:08;;;;;;;30.23;15.52;;;;;;;-0.03;76.32;100547.09;4908067;29;20478;-96
2024/02/18 02:49:34;;;;;;;34.08;16.30;;;;;;;-0.13;76.25;100540.34;4908346;29;20027;-95
2024/02/18 02:52:00;;;;;;;32.95;15.23;;;;;;;-0.14;76.45;100531.59;4908130;29;20046;-96
2024/02/18 02:54:25;;;;;;;34.40;17.95;;;;;;;-0.02;77.14;100547.94;4908449;29;20041;-96
2024/02/18 02:56:51;;;;;;;39.17;17.88;;;;;;;-0.14;76.58;100534.22;4908788;29;20039;-96
2024/02/18 02:59:16;;;;;;;34.65;16.48;;;;;;;0.14;75.84;100533.78;4908893;29;20055;-96
2024/02/18 03:01:42;;;;;;;31.48;15.63;;;;;;;0.19;75.62;100531.47;4908503;29;20027;-96
2024/02/18 03:04:08;;;;;;;32.72;16.25;;;;;;;0.29;75.54;100540.03;4908112;29;20087;-96
2024/02/18 03:06:35;;;;;;;31.48;15.75;;;;;;;0.47;75.05;100553.03;4907860;29;20023;-96
2024/02/18 03:09:00;;;;;;;31.70;16.17;;;;;;;0.55;75.29;100547.69;4924722;29;20039;-96
2024/02/18 03:11:26;;;;;;;33.63;15.80;;;;;;;0.64;74.14;100550.28;4923614;29;20085;-96
2024/02/18 03:14:24;;;;;;;35.65;17.98;;;;;;;0.45;74.27;100538.31;4945714;29;20035;-96
2024/02/18 03:16:57;;;;;;;36.88;16.95;;;;;;;0.32;74.81;100546.81;4960296;29;20024;-96
2024/02/18 03:29:54;;;;;;;38.63;17.40;;;;;;;-0.07;74.86;100569.59;4958585;28;20069;-95
2024/02/18 03:32:28;;;;;;;35.50;16.73;;;;;;;-0.21;75.47;100549.13;4924395;29;20035;-96
2024/02/18 03:34:54;;;;;;;36.15;16.55;;;;;;;-0.21;75.42;100555.25;4931298;29;20054;-96
2024/02/18 03:37:19;;;;;;;32.08;16.92;;;;;;;-0.13;75.89;100595.94;4929551;29;20028;-96
2024/02/18 03:39:46;;;;;;;39.97;17.95;;;;;;;-0.34;75.91;100557.59;4928267;29;20030;-96
2024/02/18 03:42:13;;;;;;;37.42;17.73;;;;;;;-0.30;75.74;100558.09;4944605;29;20027;-96
2024/02/18 03:44:38;;;;;;;34.72;15.90;;;;;;;-0.37;75.97;100559.72;4929342;29;20027;-96
2024/02/18 03:47:04;;;;;;;35.63;16.88;;;;;;;-0.33;75.57;100561.91;4929306;29;20027;-96
2024/02/18 03:49:30;;;;;;;39.25;17.70;;;;;;;-0.16;75.99;100564.50;4929642;29;20046;-96
2024/02/18 03:51:56;;;;;;;40.10;17.77;;;;;;;-0.16;75.62;100565.34;4928907;29;20042;-96
2024/02/18 03:54:21;;;;;;;35.50;17.58;;;;;;;-0.23;75.93;100564.34;4930292;29;20046;-96
2024/02/18 03:56:47;;;;;;;36.72;18.58;;;;;;;-0.29;75.70;100563.22;4927766;29;20039;-96
2024/02/18 03:59:16;;;;;;;42.33;19.38;;;;;;;-0.26;76.60;100576.09;4928132;29;20031;-96
2024/02/18 04:01:41;;;;;;;43.25;18.85;;;;;;;-0.32;76.65;100563.53;4927996;29;20125;-96
2024/02/18 04:04:08;;;;;;;37.75;18.92;;;;;;;-0.27;76.12;100570.97;4927850;29;20515;-96
2024/02/18 04:06:33;;;;;;;37.65;19.70;;;;;;;-0.25;76.61;100574.28;4928306;29;20405;-96
2024/02/18 04:08:59;;;;;;;38.30;19.02;;;;;;;-0.18;75.55;100582.38;4928505;29;20031;-96
2024/02/18 04:11:25;;;;;;;39.95;19.17;;;;;;;-0.22;76.30;100576.59;4943457;29;20046;-96
2024/02/18 04:13:50;;;;;;;36.08;19.83;;;;;;;-0.26;76.37;100572.63;4928764;29;20098;-96
2024/02/18 04:16:19;;;;;;;39.42;19.58;;;;;;;-0.29;76.30;100565.88;4928657;29;20122;-96
2024/02/18 04:18:45;;;;;;;39.45;19.85;;;;;;;-0.25;76.25;100571.63;4929004;29;20122;-96
2024/02/18 04:21:10;;;;;;;47.25;20.50;;;;;;;-0.23;75.88;100580.22;4928584;29;20034;-96
2024/02/18 04:23:39;;;;;;;39.97;20.88;;;;;;;-0.31;76.02;100580.22;4928695;29;20086;-96
2024/02/18 04:26:05;;;;;;;38.75;20.45;;;;;;;-0.25;76.45;100598.09;4929619;29;20047;-96
2024/02/18 04:28:38;;;;;;;44.95;21.13;;;;;;;-0.37;76.17;100563.22;4928143;29;20520;-96
2024/02/18 04:31:03;;;;;;;44.88;20.85;;;;;;;-0.47;76.62;100567.88;4927721;29;20108;-96
2024/02/18 04:33:31;;;;;;;48.00;23.08;;;;;;;-0.36;76.48;100570.16;4927953;29;20047;-96
2024/02/18 04:35:57;;;;;;;42.40;20.15;;;;;;;-0.33;75.67;100566.34;4927984;29;20054;-96
2024/02/18 06:13:22;;;;;;;40.28;17.50;;;;;;;0.25;75.01;100633.25;6096702;23;20235;31
2024/02/18 06:15:58;;;;;;;36.63;17.95;;;;;;;0.29;74.60;100632.75;4923734;29;20110;-96
2024/02/18 06:18:34;;;;;;;38.92;19.23;;;;;;;0.16;75.03;100611.25;4881649;29;20105;-96
2024/02/18 06:20:59;;;;;;;38.88;19.70;;;;;;;0.27;74.82;100613.56;4935180;29;20130;-95
2024/02/18 06:23:26;;;;;;;35.08;17.90;;;;;;;0.27;75.19;100610.06;4928344;29;20039;-95
2024/02/18 06:25:52;;;;;;;40.80;19.52;;;;;;;0.27;75.56;100613.56;4926833;29;20039;-96
2024/02/18 06:28:22;;;;;;;46.35;21.02;;;;;;;0.48;75.19;100634.19;4927131;29;20039;-96
2024/02/18 06:31:02;;;;;;;42.08;20.75;;;;;;;0.53;75.63;100621.22;4928346;29;20077;-96
2024/02/18 06:33:30;;;;;;;36.97;20.13;;;;;;;0.52;75.30;100608.13;4912399;29;20039;-96
2024/02/18 06:36:02;;;;;;;39.92;20.25;;;;;;;0.66;75.25;100606.59;4910491;29;20122;-96
2024/02/18 06:38:28;;;;;;;;;;;;;;;0.89;74.38;100630.50;4927039;29;20445;-96
2024/02/18 06:40:53;;;;;;;36.80;18.45;;;;;;;0.66;74.62;100603.94;4925090;29;19917;-95
2024/02/18 06:43:19;;;;;;;39.35;19.15;;;;;;;0.81;74.73;100610.19;4908053;29;20046;-96
2024/02/18 06:45:44;;;;;;;44.95;20.92;;;;;;;0.79;74.14;100602.41;4908874;29;20038;-95
2024/02/18 06:48:10;;;;;;;39.13;19.92;;;;;;;0.87;74.66;100609.50;4924889;29;20031;-96
2024/02/18 06:50:38;;;;;;;42.42;21.48;;;;;;;1.01;74.98;100629.94;4924221;29;20027;-95
2024/02/18 06:53:05;;;;;;;46.70;20.67;;;;;;;1.02;73.81;100609.56;4908811;29;20098;-95
2024/02/18 06:55:35;;;;;;;44.35;22.23;;;;;;;1.23;73.91;100616.88;4924016;29;20485;-96
2024/02/18 06:58:01;;;;;;;48.95;21.83;;;;;;;1.44;73.81;100612.75;4911888;29;20032;-96
2024/02/18 07:00:27;;;;;;;43.78;21.40;;;;;;;1.59;73.09;100610.97;4909082;29;20039;-96
2024/02/18 07:02:53;;;;;;;44.20;20.88;;;;;;;1.75;73.59;100625.94;4909329;29;20409;-95
2024/02/18 07:05:18;;;;;;;40.20;21.45;;;;;;;1.75;73.15;100610.00;4910034;29;20395;-96
2024/02/18 07:07:46;;;;;;;37.83;20.40;;;;;;;2.01;73.09;100614.88;4928396;29;20027;-96
2024/02/18 07:10:12;;;;;;;39.05;21.10;;;;;;;2.19;72.18;100618.00;4925652;29;20047;-96
2024/02/18 07:12:37;;;;;;;41.95;22.02;;;;;;;2.49;71.80;100636.63;4908469;29;20059;-96
2024/02/18 07:15:03;;;;;;;40.90;22.55;;;;;;;2.52;71.29;100622.94;4909998;29;20039;-96
2024/02/18 07:17:29;;;;;;;43.67;20.90;;;;;;;2.69;71.59;100617.44;4909891;29;20049;-96
2024/02/18 07:19:55;;;;;;;33.47;18.05;;;;;;;2.84;71.65;100636.84;4927075;29;20035;-95
2024/02/18 07:22:20;;;;;;;27.33;16.48;;;;;;;3.02;71.64;100642.59;4910125;29;20086;-96
2024/02/18 07:24:46;;;;;;;27.92;15.98;;;;;;;3.10;71.28;100640.84;4926485;29;20041;-96
2024/02/18 07:27:12;;;;;;;32.95;17.20;;;;;;;3.10;71.44;100628.34;4909888;29;20023;-95
2024/02/18 07:29:38;;;;;;;29.23;17.35;;;;;;;3.23;71.15;100639.13;4911879;29;20038;-94
2024/02/18 07:32:04;;;;;;;35.20;20.30;;;;;;;3.21;71.40;100619.84;4911050;29;20478;-96
2024/02/18 07:34:32;;;;;;;33.13;18.95;;;;;;;3.39;71.77;100642.56;4913729;29;20027;-95
2024/02/18 07:37:00;;;;;;;34.65;19.75;;;;;;;3.41;71.69;100636.03;4925729;29;20027;-96
2024/02/18 07:39:27;;;;;;;41.25;20.17;;;;;;;3.46;71.24;100629.31;4925576;29;20055;-96
2024/02/18 07:41:53;;;;;;;36.83;19.90;;;;;;;3.48;71.10;100621.97;4925259;29;20050;-96
2024/02/18 07:44:19;;;;;;;40.65;21.55;;;;;;;3.65;71.53;100636.66;4925670;29;20110;-96
2024/02/18 07:46:53;;;;;;;36.13;21.10;;;;;;;3.59;71.77;100627.59;4908713;29;20031;-96
2024/02/18 07:49:22;;;;;;;47.40;24.15;;;;;;;3.77;71.35;100640.44;4911562;29;20113;-96
2024/02/18 07:51:51;;;;;;;43.60;22.40;;;;;;;3.90;70.82;100628.25;4909603;29;20063;-96
2024/02/18 07:54:17;;;;;;;43.58;25.73;;;;;;;4.15;70.21;100649.94;4925597;29;20043;-96
2024/02/18 07:59:21;;;;;;;41.72;22.73;;;;;;;4.53;69.31;100647.72;5492088;23;20143;-96
2024/02/18 08:01:52;;;;;;;41.90;23.35;;;;;;;4.66;69.35;100649.63;4987709;28;20037;-96
2024/02/18 08:04:18;;;;;;;43.85;24.42;;;;;;;4.65;69.03;100627.47;4974325;28;20038;-95
2024/02/18 08:06:43;;;;;;;42.65;23.65;;;;;;;4.83;68.56;100632.25;4981937;28;20104;-95
2024/02/18 08:09:09;;;;;;;44.10;22.70;;;;;;;5.04;68.21;100639.34;4998012;28;20022;-95
2024/02/18 08:14:21;;;;;;;43.25;22.42;;;;;;;5.33;67.60;100623.16;4993559;28;20184;-96
2024/02/18 08:16:55;;;;;;;44.38;23.85;;;;;;;5.29;67.01;100612.06;4992556;28;20133;-96
2024/02/18 08:19:31;;;;;;;39.90;22.67;;;;;;;5.62;66.77;100620.13;5009815;28;20026;-96
2024/02/18 08:21:57;;;;;;;39.65;21.17;;;;;;;5.94;66.35;100647.06;4994122;28;20041;-96
2024/02/18 08:24:25;;;;;;;41.38;23.50;;;;;;;5.89;65.15;100628.13;4993247;28;20034;-96
2024/02/18 08:27:01;;;;;;;37.72;22.45;;;;;;;6.19;64.56;100609.81;4992989;28;20108;-96
2024/02/18 08:29:37;;;;;;;;;;;;;;;;;;;;;
2024/02/18 08:32:06;;;;;;;39.10;22.20;;;;;;;6.82;63.83;100632.47;5010981;28;20108;-96
2024/02/18 08:34:34;;;;;;;37.63;22.83;;;;;;;7.04;62.51;100615.06;4993534;28;20049;-96
2024/02/18 08:43:27;;;;;;;33.70;19.67;;;;;;;8.15;59.96;100614.63;5026962;28;20515;-96
2024/02/18 08:48:55;;;;;;;42.28;20.05;;;;;;;8.72;58.45;100635.94;5001188;28;20042;-96
2024/02/18 08:51:23;;;;;;;24.10;14.43;;;;;;;8.86;56.36;100622.13;5011842;28;20123;-96
2024/02/18 08:53:59;;;;;;;30.90;18.73;;;;;;;9.13;57.07;100610.19;4996467;28;20057;-96
2024/02/18 08:56:25;;;;;;;22.05;13.93;;;;;;;9.34;55.27;100614.22;5007916;28;20030;-95
2024/02/18 08:58:51;;;;;;;17.17;11.40;;;;;;;9.47;53.61;100608.66;4984670;28;20112;-95
2024/02/18 09:01:40;;;;;;;18.02;10.55;;;;;;;9.74;52.34;100621.69;4983239;28;20026;-96
2024/02/18 09:04:12;;;;;;;14.70;9.48;;;;;;;9.86;51.45;100612.59;4968624;28;20041;-96
2024/02/18 09:07:02;;;;;;;21.83;11.85;;;;;;;10.17;51.07;100642.06;5000273;28;20038;-95
2024/02/18 09:09:31;;;;;;;18.23;9.27;;;;;;;10.14;50.80;100610.25;4968638;28;20034;-96
2024/02/18 09:13:00;;;;;;;17.08;11.05;;;;;;;10.29;50.03;100614.13;4953971;28;20014;-96
2024/02/18 09:18:17;;;;;;;20.73;11.45;;;;;;;10.37;49.93;100633.66;4964468;28;20399;-95
2024/02/18 09:23:39;;;;;;;20.02;11.00;;;;;;;10.13;49.67;100630.97;4983742;28;20062;-96
2024/02/18 09:26:14;;;;;;;15.55;10.48;;;;;;;10.08;50.43;100615.50;4962822;28;20110;-96
2024/02/18 09:29:13;;;;;;;18.45;10.63;;;;;;;10.40;50.42;100644.78;4950813;28;20039;-95
2024/02/18 09:31:39;;;;;;;18.70;12.10;;;;;;;10.39;50.81;100626.97;4962780;28;20038;-95
2024/02/18 09:34:05;;;;;;;22.35;10.82;;;;;;;10.51;50.88;100637.75;4927978;29;20042;-95
2024/02/18 09:36:33;;;;;;;15.95;10.82;;;;;;;10.48;50.82;100630.97;4960177;29;20061;-96
2024/02/18 09:39:01;;;;;;;19.15;12.05;;;;;;;10.58;50.41;100633.03;4925814;29;20510;-95
2024/02/18 09:41:27;;;;;;;20.92;12.68;;;;;;;10.62;50.80;100641.47;4957618;29;20518;-96
2024/02/18 09:43:53;;;;;;;18.42;11.82;;;;;;;10.63;51.01;100649.31;4927201;29;20131;-94
2024/02/18 09:46:24;;;;;;;17.80;11.35;;;;;;;10.60;50.73;100651.66;4926357;29;20039;-96
2024/02/18 09:48:56;;;;;;;20.20;12.60;;;;;;;10.55;51.21;100655.06;4943800;29;20513;-96
2024/02/18 09:51:21;;;;;;;18.47;12.53;;;;;;;10.31;51.75;100640.78;4944212;29;20027;-96
2024/02/18 09:57:35;;;;;;;19.25;12.45;;;;;;;10.35;52.16;100654.59;5178938;23;20041;-96
2024/02/18 10:03:34;;;;;;;19.92;12.10;;;;;;;10.31;51.96;100630.03;4942590;29;20050;-96
2024/02/18 10:06:04;;;;;;;22.17;12.88;;;;;;;10.50;52.11;100646.88;4963545;28;20038;-96
2024/02/18 10:08:40;;;;;;;19.45;12.25;;;;;;;10.61;51.46;100653.31;4965037;28;20050;-95
2024/02/18 10:11:05;;;;;;;23.90;13.40;;;;;;;10.38;51.46;100633.44;4948695;28;20038;-96
2024/02/18 10:13:32;;;;;;;22.27;12.95;;;;;;;10.37;51.91;100645.22;4947320;28;20026;-96
2024/02/18 10:16:02;;;;;;;24.02;14.25;;;;;;;10.37;52.27;100639.03;4962804;28;20421;-96
2024/02/18 10:18:35;;;;;;;21.53;12.43;;;;;;;10.28;51.65;100627.78;4966224;28;20058;-96
2024/02/18 10:21:02;;;;;;;27.38;14.77;;;;;;;10.29;51.95;100619.50;4950156;28;20301;-95
2024/02/18 10:23:28;;;;;;;24.83;13.00;;;;;;;10.45;51.88;100634.09;4965587;28;20022;-96
2024/02/18 10:25:54;;;;;;;18.95;12.43;;;;;;;10.30;51.67;100621.13;4947703;28;20042;-96
2024/02/18 10:28:21;;;;;;;18.88;13.10;;;;;;;10.55;51.79;100644.28;4965414;28;20041;-96
2024/02/18 10:30:47;;;;;;;20.92;12.70;;;;;;;10.29;51.86;100622.22;4948842;28;20027;-96
2024/02/18 10:33:15;;;;;;;19.75;12.57;;;;;;;10.39;51.95;100618.09;4949058;28;20526;-96
2024/02/18 10:35:43;;;;;;;19.65;13.35;;;;;;;10.50;51.76;100615.38;4965112;28;20050;-96
2024/02/18 10:38:09;;;;;;;22.52;13.45;;;;;;;10.52;51.41;100617.81;4947943;28;20114;-96
2024/02/18 10:40:42;;;;;;;20.55;13.50;;;;;;;10.50;51.62;100620.78;4963842;28;20033;-96
2024/02/18 10:43:10;;;;;;;19.55;13.57;;;;;;;10.67;51.41;100611.94;4965831;28;20030;-96
2024/02/18 10:45:37;;;;;;;31.48;18.77;;;;;;;10.62;51.73;100591.09;4964455;28;20037;-95
2024/02/18 10:48:08;;;;;;;22.42;14.55;;;;;;;10.83;51.38;100599.59;4948235;28;20030;-96
2024/02/18 10:50:40;;;;;;;23.67;13.57;;;;;;;10.88;51.00;100589.72;4965145;28;20100;-96
2024/02/18 10:53:17;;;;;;;18.58;13.00;;;;;;;10.76;51.24;100580.06;4964538;28;20125;-96
2024/02/18 10:56:21;;;;;;;21.58;13.50;;;;;;;10.70;51.35;100579.94;4965536;28;20085;-96
2024/02/18 11:20:37;;;;;;;25.00;15.30;;;;;;;10.95;51.45;100562.63;4987240;28;20109;-96
2024/02/18 12:01:46;;;;;;;23.75;15.55;;;;;;;11.24;51.14;100549.94;4983518;28;20035;-96
2024/02/18 13:42:06;;;;;;;25.45;16.92;;;;;;;12.16;50.75;100557.81;4944234;29;20055;-96
2024/02/18 13:44:34;;;;;;;27.83;17.58;;;;;;;12.05;51.03;100546.06;4947466;29;20047;-96
2024/02/18 13:47:02;;;;;;;27.50;18.05;;;;;;;12.14;50.88;100539.19;4946912;29;20078;-96
2024/02/18 13:49:38;;;;;;;26.60;17.08;;;;;;;12.15;50.73;100538.13;4947026;29;20027;-96
2024/02/18 14:30:30;;;;;;;30.52;17.85;;;;;;;12.05;51.21;100529.88;4980417;28;20071;-96
2024/02/18 14:38:36;;;;;;;31.17;19.35;;;;;;;12.01;51.16;100545.75;5407242;23;20065;-96
2024/02/18 14:53:28;;;;;;;30.60;18.60;;;;;;;11.68;52.67;100543.88;4919120;29;20131;-96
2024/02/18 14:55:58;;;;;;;35.33;20.38;;;;;;;11.36;53.38;100536.38;4872994;29;20071;-96
2024/02/18 14:58:25;;;;;;;29.15;19.38;;;;;;;11.32;53.54;100537.94;4891323;29;20032;-96
2024/02/18 15:00:51;;;;;;;28.80;18.65;;;;;;;11.23;53.36;100547.50;4902254;29;20046;-95
2024/02/18 15:03:17;;;;;;;29.33;18.95;;;;;;;11.14;53.71;100544.38;4889073;29;20479;-96
2024/02/18 15:05:44;;;;;;;33.90;19.73;;;;;;;11.21;53.87;100560.41;4888549;29;20032;-96
2024/02/18 15:08:10;;;;;;;26.73;18.80;;;;;;;11.07;53.99;100555.31;4889076;29;20032;-96
2024/02/18 15:10:36;;;;;;;28.38;18.83;;;;;;;10.96;54.12;100547.28;4888787;29;20038;-96
2024/02/18 15:13:06;;;;;;;30.55;19.58;;;;;;;10.95;54.26;100551.03;4889381;29;20127;-96
2024/02/18 15:15:32;;;;;;;32.55;20.05;;;;;;;10.98;54.06;100555.94;4889059;29;20036;-96
2024/02/18 15:17:58;;;;;;;31.15;20.02;;;;;;;10.86;54.78;100554.13;4903348;29;20032;-96
2024/02/18 15:20:26;;;;;;;28.48;19.55;;;;;;;10.86;54.30;100553.31;4887407;29;20607;-96
2024/02/18 15:22:57;;;;;;;33.33;19.83;;;;;;;11.00;54.59;100573.53;4904215;29;20028;-96
2024/02/18 15:25:23;;;;;;;42.35;22.27;;;;;;;10.83;54.67;100560.00;4891008;29;20479;-96
2024/02/18 15:27:49;;;;;;;32.45;20.23;;;;;;;10.90;54.94;100562.56;4891789;29;20028;-96
2024/02/18 15:30:15;;;;;;;30.33;21.00;;;;;;;10.90;54.42;100563.38;4907084;29;20040;-96
2024/02/18 15:32:41;;;;;;;33.20;20.90;;;;;;;10.86;54.57;100553.31;4908387;29;20032;-96
2024/02/18 15:35:07;;;;;;;37.53;21.20;;;;;;;10.89;55.39;100569.00;4892436;29;20032;-96
2024/02/18 15:37:33;;;;;;;36.50;21.65;;;;;;;10.89;55.40;100569.81;4894037;29;20043;-95
2024/02/18 15:39:59;;;;;;;34.58;21.40;;;;;;;10.78;55.42;100567.97;4893361;29;20036;-96
2024/02/18 15:42:27;;;;;;;39.10;22.38;;;;;;;10.76;55.82;100578.19;4893610;29;20032;-96
2024/02/18 15:44:53;;;;;;;37.10;21.92;;;;;;;10.70;55.91;100584.53;4890679;29;20131;-95
2024/02/18 15:47:22;;;;;;;42.60;22.67;;;;;;;10.54;56.17;100561.03;4906510;29;20094;-96
2024/02/18 15:49:48;;;;;;;34.10;21.27;;;;;;;10.49;56.46;100567.94;4892646;29;20031;-96
2024/02/18 15:52:14;;;;;;;36.08;21.85;;;;;;;10.38;56.86;100558.03;4906594;29;20114;-96
2024/02/18 15:54:39;;;;;;;32.80;22.05;;;;;;;10.30;57.19;100563.78;4906110;29;20119;-96
2024/02/18 15:57:07;;;;;;;35.30;22.20;;;;;;;10.28;57.55;100573.94;4905538;29;20056;-96
2024/02/18 15:59:33;;;;;;;36.70;21.73;;;;;;;10.14;57.73;100572.56;4891455;29;20043;-96
2024/02/18 16:01:59;;;;;;;37.25;23.23;;;;;;;10.06;58.33;100577.22;4907620;29;20034;-96
2024/02/18 16:04:25;;;;;;;43.67;25.80;;;;;;;10.00;58.46;100578.19;4891039;29;20455;-96
2024/02/18 16:06:53;;;;;;;35.83;23.67;;;;;;;9.83;58.32;100561.91;4889986;29;20467;-96
2024/02/18 16:09:19;;;;;;;53.53;30.25;;;;;;;9.81;58.80;100569.41;4892311;29;20033;-95
2024/02/18 16:11:44;;;;;;;66.22;36.50;;;;;;;9.84;59.50;100593.16;4893711;29;20039;-96
2024/02/18 16:17:13;;;;;;;61.42;37.42;;;;;;;9.56;60.05;100582.25;4964453;28;20087;-95
2024/02/18 16:19:43;;;;;;;50.53;31.85;;;;;;;9.57;60.04;100600.84;4928721;29;20457;-96
2024/02/18 18:08:50;;;;;;;27.50;15.75;;;;;;;7.82;65.22;100611.22;5590014;23;20066;-96
2024/02/18 18:11:23;;;;;;;27.90;14.95;;;;;;;7.68;65.87;100601.66;4949902;28;20022;-96
2024/02/18 18:13:51;;;;;;;23.25;13.27;;;;;;;7.63;66.47;100604.16;4965007;28;20030;-96
2024/02/18 18:16:17;;;;;;;23.92;13.20;;;;;;;7.61;66.36;100615.09;4950540;28;20057;-96
2024/02/18 18:18:45;;;;;;;23.48;13.43;;;;;;;7.57;67.00;100602.34;4965261;28;20038;-96
2024/02/18 18:21:11;;;;;;;22.77;12.25;;;;;;;7.63;67.22;100623.72;4966664;28;20041;-96
2024/02/18 18:23:38;;;;;;;21.75;12.40;;;;;;;7.67;67.05;100624.13;4950188;28;20040;-96
2024/02/18 18:26:05;;;;;;;20.63;12.50;;;;;;;7.60;67.44;100612.66;4949152;28;20174;-96
2024/02/18 18:28:31;;;;;;;21.42;12.55;;;;;;;7.57;67.52;100602.34;4981300;28;20061;-96
2024/02/18 18:31:04;;;;;;;23.65;13.25;;;;;;;7.63;67.67;100610.34;4981311;28;20093;-96
2024/02/18 18:33:39;;;;;;;29.20;17.27;;;;;;;7.32;67.62;100600.47;4951855;28;20049;-96
2024/02/18 18:36:06;;;;;;;29.63;16.50;;;;;;;7.37;67.26;100607.88;4951796;28;20022;-96
2024/02/18 18:38:32;;;;;;;30.77;16.27;;;;;;;7.47;67.43;100613.53;4963028;28;20045;-96
2024/02/18 18:40:57;;;;;;;27.13;15.70;;;;;;;7.47;67.31;100613.53;4949788;28;20022;-96
2024/02/18 18:43:23;;;;;;;26.25;15.85;;;;;;;7.43;67.51;100615.03;4950988;28;20026;-96
2024/02/18 18:45:49;;;;;;;24.27;13.98;;;;;;;7.44;67.88;100609.44;4949174;28;20444;-96
2024/02/18 18:48:16;;;;;;;21.63;10.95;;;;;;;7.39;68.35;100611.16;4949362;28;20027;-96
2024/02/18 18:50:51;;;;;;;21.80;14.27;;;;;;;7.43;68.84;100623.09;4981133;28;20037;-96
2024/02/18 18:53:29;;;;;;;27.73;15.48;;;;;;;7.30;68.35;100610.56;4969674;28;20030;-96
2024/02/18 18:55:59;;;;;;;23.48;14.48;;;;;;;7.28;68.50;100601.94;4984381;28;20105;-96